sensor_id;sensor_type;location;lat;lon;timestamp;pressure;altitude;pressure_sealevel;temperature;humidity
15750;BME280;7976;52.526;13.326;2023-04-19T00:00:15;102318.38;;;7.86;69.19
15750;BME280;7976;52.526;13.326;2023-04-19T00:02:42;102306.22;;;7.88;68.73
15750;BME280;7976;52.526;13.326;2023-04-19T00:05:09;102311.44;;;7.92;68.29
15750;BME280;7976;52.526;13.326;2023-04-19T00:07:39;102305.38;;;7.93;67.61
15750;BME280;7976;52.526;13.326;2023-04-19T00:10:08;102301.88;;;7.96;66.95
15750;BME280;7976;52.526;13.326;2023-04-19T00:12:35;102308.84;;;8.00;66.19
15750;BME280;7976;52.526;13.326;2023-04-19T00:15:02;102305.34;;;8.02;65.99
15750;BME280;7976;52.526;13.326;2023-04-19T00:17:29;102308.81;;;8.06;65.54
15750;BME280;7976;52.526;13.326;2023-04-19T00:19:56;102296.66;;;8.05;65.08
15750;BME280;7976;52.526;13.326;2023-04-19T00:22:23;102311.41;;;8.06;64.69
15750;BME280;7976;52.526;13.326;2023-04-19T00:24:52;102297.53;;;8.07;64.38
15750;BME280;7976;52.526;13.326;2023-04-19T00:27:19;102296.66;;;8.05;63.71
15750;BME280;7976;52.526;13.326;2023-04-19T00:29:45;102301.00;;;8.06;63.61
15750;BME280;7976;52.526;13.326;2023-04-19T00:32:14;102301.88;;;8.02;63.22
15750;BME280;7976;52.526;13.326;2023-04-19T00:34:41;102302.75;;;8.04;63.05
15750;BME280;7976;52.526;13.326;2023-04-19T00:37:08;102298.41;;;8.00;63.04
15750;BME280;7976;52.526;13.326;2023-04-19T00:39:35;102307.97;;;7.96;62.57
15750;BME280;7976;52.526;13.326;2023-04-19T00:42:05;102301.03;;;7.97;62.30
15750;BME280;7976;52.526;13.326;2023-04-19T00:44:32;102296.66;;;7.96;62.43
15750;BME280;7976;52.526;13.326;2023-04-19T00:46:59;102298.41;;;7.97;62.31
15750;BME280;7976;52.526;13.326;2023-04-19T00:49:26;102301.88;;;7.90;61.99
15750;BME280;7976;52.526;13.326;2023-04-19T00:51:53;102304.50;;;7.88;62.14
15750;BME280;7976;52.526;13.326;2023-04-19T00:54:21;102291.47;;;7.88;62.23
15750;BME280;7976;52.526;13.326;2023-04-19T00:56:50;102293.19;;;7.91;62.40
15750;BME280;7976;52.526;13.326;2023-04-19T00:59:18;102295.81;;;7.89;62.39
15750;BME280;7976;52.526;13.326;2023-04-19T01:01:45;102294.94;;;7.86;62.35
15750;BME280;7976;52.526;13.326;2023-04-19T01:04:12;102295.81;;;7.82;62.50
15750;BME280;7976;52.526;13.326;2023-04-19T01:06:40;102296.69;;;7.78;62.17
15750;BME280;7976;52.526;13.326;2023-04-19T01:09:10;102288.88;;;7.73;62.41
15750;BME280;7976;52.526;13.326;2023-04-19T01:11:39;102290.63;;;7.68;62.17
15750;BME280;7976;52.526;13.326;2023-04-19T01:14:07;102299.28;;;7.67;62.31
15750;BME280;7976;52.526;13.326;2023-04-19T01:16:35;102295.84;;;7.65;62.33
15750;BME280;7976;52.526;13.326;2023-04-19T01:19:01;102301.88;;;7.65;62.05
15750;BME280;7976;52.526;13.326;2023-04-19T01:21:28;102299.28;;;7.62;62.04
15750;BME280;7976;52.526;13.326;2023-04-19T01:23:58;102302.75;;;7.58;62.41
15750;BME280;7976;52.526;13.326;2023-04-19T01:26:25;102303.63;;;7.54;62.09
15750;BME280;7976;52.526;13.326;2023-04-19T01:28:53;102287.13;;;7.49;62.15
15750;BME280;7976;52.526;13.326;2023-04-19T01:31:20;102293.19;;;7.48;62.06
15750;BME280;7976;52.526;13.326;2023-04-19T01:33:46;102287.97;;;7.48;62.39
15750;BME280;7976;52.526;13.326;2023-04-19T01:36:13;102289.75;;;7.46;62.32
15750;BME280;7976;52.526;13.326;2023-04-19T01:38:40;102296.69;;;7.43;62.28
15750;BME280;7976;52.526;13.326;2023-04-19T01:41:10;102289.72;;;7.40;62.35
15750;BME280;7976;52.526;13.326;2023-04-19T01:43:37;102284.50;;;7.39;62.30
15750;BME280;7976;52.526;13.326;2023-04-19T01:46:04;102286.25;;;7.37;62.25
15750;BME280;7976;52.526;13.326;2023-04-19T01:48:30;102279.31;;;7.31;62.68
15750;BME280;7976;52.526;13.326;2023-04-19T01:50:58;102284.50;;;7.28;62.76
15750;BME280;7976;52.526;13.326;2023-04-19T01:53:25;102280.16;;;7.27;63.10
15750;BME280;7976;52.526;13.326;2023-04-19T01:55:52;102278.44;;;7.29;62.88
15750;BME280;7976;52.526;13.326;2023-04-19T01:58:20;102279.28;;;7.27;63.21
15750;BME280;7976;52.526;13.326;2023-04-19T02:00:47;102279.28;;;7.25;63.18
15750;BME280;7976;52.526;13.326;2023-04-19T02:03:14;102278.41;;;7.22;63.54
15750;BME280;7976;52.526;13.326;2023-04-19T02:05:41;102278.41;;;7.19;63.43
15750;BME280;7976;52.526;13.326;2023-04-19T02:08:08;102270.59;;;7.17;63.52
15750;BME280;7976;52.526;13.326;2023-04-19T02:10:35;102280.16;;;7.14;63.82
15750;BME280;7976;52.526;13.326;2023-04-19T02:13:02;102266.25;;;7.13;63.72
15750;BME280;7976;52.526;13.326;2023-04-19T02:15:30;102265.41;;;7.13;63.81
15750;BME280;7976;52.526;13.326;2023-04-19T02:17:56;102262.81;;;7.13;63.84
15750;BME280;7976;52.526;13.326;2023-04-19T02:20:24;102266.25;;;7.12;64.19
15750;BME280;7976;52.526;13.326;2023-04-19T02:22:51;102265.41;;;7.10;64.20
15750;BME280;7976;52.526;13.326;2023-04-19T02:25:18;102261.03;;;7.09;64.27
15750;BME280;7976;52.526;13.326;2023-04-19T02:27:45;102262.78;;;7.07;64.40
15750;BME280;7976;52.526;13.326;2023-04-19T02:30:12;102264.50;;;7.03;64.62
15750;BME280;7976;52.526;13.326;2023-04-19T02:32:40;102260.16;;;6.99;64.76
15750;BME280;7976;52.526;13.326;2023-04-19T02:35:08;102256.69;;;6.97;64.76
15750;BME280;7976;52.526;13.326;2023-04-19T02:37:35;102261.03;;;6.95;64.96
15750;BME280;7976;52.526;13.326;2023-04-19T02:40:01;102265.34;;;6.93;65.30
15750;BME280;7976;52.526;13.326;2023-04-19T02:42:29;102250.59;;;6.89;65.36
15750;BME280;7976;52.526;13.326;2023-04-19T02:44:56;102252.34;;;6.84;65.67
15750;BME280;7976;52.526;13.326;2023-04-19T02:47:23;102243.66;;;6.82;65.66
15750;BME280;7976;52.526;13.326;2023-04-19T02:49:51;102248.84;;;6.81;66.10
15750;BME280;7976;52.526;13.326;2023-04-19T02:52:18;102246.25;;;6.79;66.05
15750;BME280;7976;52.526;13.326;2023-04-19T02:54:45;102246.25;;;6.79;66.42
15750;BME280;7976;52.526;13.326;2023-04-19T02:57:12;102243.63;;;6.73;66.53
15750;BME280;7976;52.526;13.326;2023-04-19T02:59:41;102242.72;;;6.68;67.04
15750;BME280;7976;52.526;13.326;2023-04-19T03:02:08;102239.28;;;6.66;67.21
15750;BME280;7976;52.526;13.326;2023-04-19T03:04:35;102239.28;;;6.66;67.47
15750;BME280;7976;52.526;13.326;2023-04-19T03:07:03;102231.44;;;6.63;67.34
15750;BME280;7976;52.526;13.326;2023-04-19T03:09:30;102234.91;;;6.56;67.50
15750;BME280;7976;52.526;13.326;2023-04-19T03:11:57;102232.25;;;6.47;67.83
15750;BME280;7976;52.526;13.326;2023-04-19T03:14:24;102226.19;;;6.39;68.13
15750;BME280;7976;52.526;13.326;2023-04-19T03:16:51;102227.00;;;6.35;68.44
15750;BME280;7976;52.526;13.326;2023-04-19T03:19:18;102217.50;;;6.34;68.61
15750;BME280;7976;52.526;13.326;2023-04-19T03:21:49;102212.28;;;6.31;69.19
15750;BME280;7976;52.526;13.326;2023-04-19T03:24:19;102214.00;;;6.29;69.28
15750;BME280;7976;52.526;13.326;2023-04-19T03:26:49;102216.59;;;6.26;69.46
15750;BME280;7976;52.526;13.326;2023-04-19T03:29:21;102213.97;;;6.21;69.65
15750;BME280;7976;52.526;13.326;2023-04-19T03:31:54;102209.63;;;6.22;70.10
15750;BME280;7976;52.526;13.326;2023-04-19T03:34:20;102208.81;;;6.26;70.42
15750;BME280;7976;52.526;13.326;2023-04-19T03:36:48;102214.00;;;6.27;70.53
15750;BME280;7976;52.526;13.326;2023-04-19T03:39:15;102211.41;;;6.32;70.63
15750;BME280;7976;52.526;13.326;2023-04-19T03:41:46;102206.22;;;6.29;70.68
15750;BME280;7976;52.526;13.326;2023-04-19T03:44:19;102201.84;;;6.22;70.68
15750;BME280;7976;52.526;13.326;2023-04-19T03:46:47;102198.34;;;6.14;70.70
15750;BME280;7976;52.526;13.326;2023-04-19T03:49:16;102206.09;;;6.08;71.25
15750;BME280;7976;52.526;13.326;2023-04-19T03:51:48;102204.31;;;5.98;71.66
15750;BME280;7976;52.526;13.326;2023-04-19T03:54:15;102196.50;;;5.90;71.77
15750;BME280;7976;52.526;13.326;2023-04-19T03:56:42;102199.03;;;5.83;72.33
15750;BME280;7976;52.526;13.326;2023-04-19T03:59:10;102199.84;;;5.77;72.92
15750;BME280;7976;52.526;13.326;2023-04-19T04:01:38;102188.59;;;5.80;73.06
15750;BME280;7976;52.526;13.326;2023-04-19T04:04:06;102189.53;;;5.83;73.19
15750;BME280;7976;52.526;13.326;2023-04-19T04:06:34;102193.84;;;5.83;73.29
15750;BME280;7976;52.526;13.326;2023-04-19T04:09:01;102194.72;;;5.85;73.50
15750;BME280;7976;52.526;13.326;2023-04-19T04:11:29;102193.00;;;5.84;73.82
15750;BME280;7976;52.526;13.326;2023-04-19T04:13:56;102186.03;;;5.83;73.81
15750;BME280;7976;52.526;13.326;2023-04-19T04:16:28;102188.59;;;5.77;74.06
15750;BME280;7976;52.526;13.326;2023-04-19T04:18:55;102186.81;;;5.70;74.37
15750;BME280;7976;52.526;13.326;2023-04-19T04:21:24;102185.91;;;5.66;74.84
15750;BME280;7976;52.526;13.326;2023-04-19T04:23:52;102181.59;;;5.68;75.28
15750;BME280;7976;52.526;13.326;2023-04-19T04:26:27;102179.88;;;5.69;75.37
15750;BME280;7976;52.526;13.326;2023-04-19T04:29:10;102181.59;;;5.67;75.50
15750;BME280;7976;52.526;13.326;2023-04-19T04:31:40;102174.69;;;5.67;75.76
15750;BME280;7976;52.526;13.326;2023-04-19T04:34:07;102179.88;;;5.67;75.89
15750;BME280;7976;52.526;13.326;2023-04-19T04:36:38;102178.13;;;5.68;76.03
15750;BME280;7976;52.526;13.326;2023-04-19T04:39:06;102179.00;;;5.68;76.49
15750;BME280;7976;52.526;13.326;2023-04-19T04:41:36;102167.78;;;5.71;76.60
15750;BME280;7976;52.526;13.326;2023-04-19T04:44:06;102170.41;;;5.72;76.74
15750;BME280;7976;52.526;13.326;2023-04-19T04:46:35;102160.84;;;5.73;77.03
15750;BME280;7976;52.526;13.326;2023-04-19T04:49:03;102169.53;;;5.75;77.03
15750;BME280;7976;52.526;13.326;2023-04-19T04:51:29;102160.91;;;5.77;77.12
15750;BME280;7976;52.526;13.326;2023-04-19T04:53:58;102168.63;;;5.71;77.58
15750;BME280;7976;52.526;13.326;2023-04-19T04:56:25;102176.44;;;5.71;77.91
15750;BME280;7976;52.526;13.326;2023-04-19T04:58:52;102173.88;;;5.74;78.04
15750;BME280;7976;52.526;13.326;2023-04-19T05:01:26;102166.09;;;5.76;78.28
15750;BME280;7976;52.526;13.326;2023-04-19T05:03:53;102166.09;;;5.74;77.99
15750;BME280;7976;52.526;13.326;2023-04-19T05:06:21;102166.94;;;5.73;78.50
15750;BME280;7976;52.526;13.326;2023-04-19T05:08:48;102166.09;;;5.76;78.41
15750;BME280;7976;52.526;13.326;2023-04-19T05:11:20;102168.69;;;5.79;78.96
15750;BME280;7976;52.526;13.326;2023-04-19T05:13:47;102158.34;;;5.83;78.70
15750;BME280;7976;52.526;13.326;2023-04-19T05:16:14;102160.13;;;5.87;78.79
15750;BME280;7976;52.526;13.326;2023-04-19T05:18:44;102151.47;;;5.93;78.98
15750;BME280;7976;52.526;13.326;2023-04-19T05:21:10;102154.09;;;5.97;78.50
15750;BME280;7976;52.526;13.326;2023-04-19T05:23:40;102154.13;;;6.00;78.66
15750;BME280;7976;52.526;13.326;2023-04-19T05:26:07;102151.53;;;6.03;78.51
15750;BME280;7976;52.526;13.326;2023-04-19T05:28:37;102153.28;;;6.07;78.44
15750;BME280;7976;52.526;13.326;2023-04-19T05:31:10;102145.50;;;6.06;78.38
15750;BME280;7976;52.526;13.326;2023-04-19T05:33:54;102145.50;;;6.09;78.77
15750;BME280;7976;52.526;13.326;2023-04-19T05:36:21;102144.66;;;6.14;78.60
15750;BME280;7976;52.526;13.326;2023-04-19T05:38:52;102143.78;;;6.23;78.76
15750;BME280;7976;52.526;13.326;2023-04-19T05:41:20;102140.34;;;6.30;78.44
15750;BME280;7976;52.526;13.326;2023-04-19T05:43:46;102136.03;;;6.32;78.36
15750;BME280;7976;52.526;13.326;2023-04-19T05:46:13;102131.72;;;6.31;78.01
15750;BME280;7976;52.526;13.326;2023-04-19T05:48:40;102136.03;;;6.33;78.22
15750;BME280;7976;52.526;13.326;2023-04-19T05:51:25;102123.91;;;6.35;78.21
15750;BME280;7976;52.526;13.326;2023-04-19T05:54:13;102132.59;;;6.42;78.23
15750;BME280;7976;52.526;13.326;2023-04-19T05:56:44;102128.28;;;6.47;77.88
15750;BME280;7976;52.526;13.326;2023-04-19T05:59:11;102130.03;;;6.51;77.86
15750;BME280;7976;52.526;13.326;2023-04-19T06:01:39;102123.09;;;6.59;77.52
15750;BME280;7976;52.526;13.326;2023-04-19T06:04:06;102131.78;;;6.63;77.32
15750;BME280;7976;52.526;13.326;2023-04-19T06:06:33;102128.31;;;6.65;77.25
15750;BME280;7976;52.526;13.326;2023-04-19T06:08:59;102139.56;;;6.69;77.01
15750;BME280;7976;52.526;13.326;2023-04-19T06:11:29;102139.59;;;6.75;76.70
15750;BME280;7976;52.526;13.326;2023-04-19T06:13:56;102130.06;;;6.81;76.50
15750;BME280;7976;52.526;13.326;2023-04-19T06:16:23;102139.59;;;6.88;76.53
15750;BME280;7976;52.526;13.326;2023-04-19T06:18:49;102139.63;;;6.93;76.37
15750;BME280;7976;52.526;13.326;2023-04-19T06:21:16;102139.59;;;6.99;76.10
15750;BME280;7976;52.526;13.326;2023-04-19T06:23:43;102134.41;;;7.08;75.75
15750;BME280;7976;52.526;13.326;2023-04-19T06:26:10;102135.28;;;7.13;75.47
15750;BME280;7976;52.526;13.326;2023-04-19T06:28:38;102136.13;;;7.18;75.15
15750;BME280;7976;52.526;13.326;2023-04-19T06:31:05;102132.66;;;7.20;75.00
15750;BME280;7976;52.526;13.326;2023-04-19T06:33:31;102127.44;;;7.22;75.08
15750;BME280;7976;52.526;13.326;2023-04-19T06:35:58;102130.06;;;7.28;74.66
15750;BME280;7976;52.526;13.326;2023-04-19T06:38:25;102131.75;;;7.33;74.47
15750;BME280;7976;52.526;13.326;2023-04-19T06:40:52;102129.16;;;7.44;74.53
15750;BME280;7976;52.526;13.326;2023-04-19T06:43:19;102126.53;;;7.56;73.96
15750;BME280;7976;52.526;13.326;2023-04-19T06:45:47;102116.94;;;7.67;73.78
15750;BME280;7976;52.526;13.326;2023-04-19T06:48:14;102111.69;;;7.78;73.63
15750;BME280;7976;52.526;13.326;2023-04-19T06:50:41;102109.91;;;7.87;73.11
15750;BME280;7976;52.526;13.326;2023-04-19T06:53:07;102115.97;;;7.97;72.75
15750;BME280;7976;52.526;13.326;2023-04-19T06:55:34;102106.38;;;8.05;72.32
15750;BME280;7976;52.526;13.326;2023-04-19T06:58:01;102101.13;;;8.14;71.66
15750;BME280;7976;52.526;13.326;2023-04-19T07:00:28;102094.16;;;8.19;70.98
15750;BME280;7976;52.526;13.326;2023-04-19T07:02:56;102095.00;;;8.27;70.38
15750;BME280;7976;52.526;13.326;2023-04-19T07:05:24;102090.59;;;8.35;70.21
15750;BME280;7976;52.526;13.326;2023-04-19T07:07:51;102074.88;;;8.42;69.31
15750;BME280;7976;52.526;13.326;2023-04-19T07:10:18;102070.50;;;8.50;68.53
15750;BME280;7976;52.526;13.326;2023-04-19T07:12:45;102073.03;;;8.64;68.33
15750;BME280;7976;52.526;13.326;2023-04-19T07:15:11;102071.19;;;8.73;68.04
15750;BME280;7976;52.526;13.326;2023-04-19T07:17:39;102072.84;;;8.83;67.69
15750;BME280;7976;52.526;13.326;2023-04-19T07:20:08;102067.63;;;8.85;66.79
15750;BME280;7976;52.526;13.326;2023-04-19T07:22:34;102056.22;;;8.94;66.00
15750;BME280;7976;52.526;13.326;2023-04-19T07:25:02;102051.75;;;9.06;65.95
15750;BME280;7976;52.526;13.326;2023-04-19T07:27:28;102055.94;;;9.22;65.65
15750;BME280;7976;52.526;13.326;2023-04-19T07:29:55;102050.59;;;9.34;64.78
15750;BME280;7976;52.526;13.326;2023-04-19T07:32:22;102054.00;;;9.42;64.37
15750;BME280;7976;52.526;13.326;2023-04-19T07:34:49;102055.56;;;9.55;63.67
15750;BME280;7976;52.526;13.326;2023-04-19T07:37:18;102053.72;;;9.63;63.21
15750;BME280;7976;52.526;13.326;2023-04-19T07:39:45;102048.44;;;9.71;62.69
15750;BME280;7976;52.526;13.326;2023-04-19T07:42:12;102035.25;;;9.78;62.34
15750;BME280;7976;52.526;13.326;2023-04-19T07:44:39;102042.19;;;9.82;61.48
15750;BME280;7976;52.526;13.326;2023-04-19T07:47:05;102028.13;;;9.88;61.16
15750;BME280;7976;52.526;13.326;2023-04-19T07:49:33;102033.19;;;10.00;60.91
15750;BME280;7976;52.526;13.326;2023-04-19T07:52:00;102020.91;;;10.08;60.45
15750;BME280;7976;52.526;13.326;2023-04-19T07:54:29;102012.91;;;10.19;60.03
15750;BME280;7976;52.526;13.326;2023-04-19T07:56:56;102022.38;;;10.27;59.61
15750;BME280;7976;52.526;13.326;2023-04-19T07:59:24;102023.16;;;10.34;59.09
15750;BME280;7976;52.526;13.326;2023-04-19T08:01:51;102019.59;;;10.38;58.23
15750;BME280;7976;52.526;13.326;2023-04-19T08:04:17;102019.47;;;10.45;58.13
15750;BME280;7976;52.526;13.326;2023-04-19T08:06:44;102020.22;;;10.52;57.73
15750;BME280;7976;52.526;13.326;2023-04-19T08:09:11;102022.78;;;10.58;57.25
15750;BME280;7976;52.526;13.326;2023-04-19T08:11:39;102007.91;;;10.60;56.74
15750;BME280;7976;52.526;13.326;2023-04-19T08:14:07;102006.09;;;10.62;56.16
15750;BME280;7976;52.526;13.326;2023-04-19T08:16:34;101999.97;;;10.64;56.02
15750;BME280;7976;52.526;13.326;2023-04-19T08:19:01;101997.22;;;10.70;55.79
15750;BME280;7976;52.526;13.326;2023-04-19T08:21:33;101991.03;;;10.76;55.50
15750;BME280;7976;52.526;13.326;2023-04-19T08:24:05;101994.38;;;10.84;55.15
15750;BME280;7976;52.526;13.326;2023-04-19T08:26:32;101993.34;;;10.92;54.87
15750;BME280;7976;52.526;13.326;2023-04-19T08:29:00;101997.63;;;10.98;53.91
15750;BME280;7976;52.526;13.326;2023-04-19T08:31:27;101989.66;;;11.02;53.21
15750;BME280;7976;52.526;13.326;2023-04-19T08:33:56;101989.53;;;11.10;52.60
15750;BME280;7976;52.526;13.326;2023-04-19T08:36:24;101992.75;;;11.24;52.94
15750;BME280;7976;52.526;13.326;2023-04-19T08:38:52;101987.25;;;11.36;52.68
15750;BME280;7976;52.526;13.326;2023-04-19T08:41:20;101985.41;;;11.41;52.19
15750;BME280;7976;52.526;13.326;2023-04-19T08:43:51;101981.00;;;11.43;52.30
15750;BME280;7976;52.526;13.326;2023-04-19T08:46:21;101969.88;;;11.33;52.07
15750;BME280;7976;52.526;13.326;2023-04-19T08:48:50;101986.38;;;11.35;52.22
15750;BME280;7976;52.526;13.326;2023-04-19T08:51:18;101979.41;;;11.36;51.97
15750;BME280;7976;52.526;13.326;2023-04-19T08:53:46;101974.22;;;11.33;51.68
15750;BME280;7976;52.526;13.326;2023-04-19T08:56:14;101982.09;;;11.33;52.16
15750;BME280;7976;52.526;13.326;2023-04-19T08:58:41;101978.59;;;11.32;52.04
15750;BME280;7976;52.526;13.326;2023-04-19T09:01:08;101988.09;;;11.38;52.07
15750;BME280;7976;52.526;13.326;2023-04-19T09:03:42;101974.94;;;11.41;51.67
15750;BME280;7976;52.526;13.326;2023-04-19T09:06:10;101970.44;;;11.46;52.16
15750;BME280;7976;52.526;13.326;2023-04-19T09:08:39;101960.78;;;11.50;51.76
15750;BME280;7976;52.526;13.326;2023-04-19T09:11:06;101959.75;;;11.57;51.64
15750;BME280;7976;52.526;13.326;2023-04-19T09:13:34;101950.06;;;11.60;51.83
15750;BME280;7976;52.526;13.326;2023-04-19T09:16:03;101956.19;;;11.59;51.45
15750;BME280;7976;52.526;13.326;2023-04-19T09:18:32;101946.53;;;11.61;51.37
15750;BME280;7976;52.526;13.326;2023-04-19T09:21:01;101954.25;;;11.70;51.24
15750;BME280;7976;52.526;13.326;2023-04-19T09:23:28;101935.69;;;11.78;50.95
15750;BME280;7976;52.526;13.326;2023-04-19T09:25:57;101939.03;;;11.84;50.55
15750;BME280;7976;52.526;13.326;2023-04-19T09:28:25;101920.41;;;11.96;50.39
15750;BME280;7976;52.526;13.326;2023-04-19T09:30:52;101933.97;;;12.13;50.09
15750;BME280;7976;52.526;13.326;2023-04-19T09:33:32;101924.91;;;12.26;49.51
15750;BME280;7976;52.526;13.326;2023-04-19T09:36:01;101924.75;;;12.32;48.82
15750;BME280;7976;52.526;13.326;2023-04-19T09:38:28;101917.59;;;12.37;48.66
15750;BME280;7976;52.526;13.326;2023-04-19T09:41:06;101912.25;;;12.42;48.96
15750;BME280;7976;52.526;13.326;2023-04-19T09:43:33;101916.59;;;12.43;48.73
15750;BME280;7976;52.526;13.326;2023-04-19T09:46:00;101905.22;;;12.42;48.47
15750;BME280;7976;52.526;13.326;2023-04-19T09:48:27;101917.31;;;12.49;48.98
15750;BME280;7976;52.526;13.326;2023-04-19T09:50:56;101906.56;;;12.58;48.86
15750;BME280;7976;52.526;13.326;2023-04-19T09:53:27;101914.09;;;12.72;48.81
15750;BME280;7976;52.526;13.326;2023-04-19T09:55:54;101898.13;;;12.78;48.26
15750;BME280;7976;52.526;13.326;2023-04-19T09:58:21;101904.28;;;12.79;48.23
15750;BME280;7976;52.526;13.326;2023-04-19T10:00:48;101897.28;;;12.78;48.20
15750;BME280;7976;52.526;13.326;2023-04-19T10:03:18;101888.66;;;12.73;47.91
15750;BME280;7976;52.526;13.326;2023-04-19T10:05:46;101894.78;;;12.73;47.90
15750;BME280;7976;52.526;13.326;2023-04-19T10:08:16;101883.38;;;12.74;48.20
15750;BME280;7976;52.526;13.326;2023-04-19T10:10:54;101884.88;;;12.83;48.15
15750;BME280;7976;52.526;13.326;2023-04-19T10:13:23;101882.81;;;12.94;47.84
15750;BME280;7976;52.526;13.326;2023-04-19T10:15:50;101873.63;;;13.10;47.51
15750;BME280;7976;52.526;13.326;2023-04-19T10:18:18;101875.00;;;13.23;47.58
15750;BME280;7976;52.526;13.326;2023-04-19T10:20:54;101873.56;;;13.40;47.33
15750;BME280;7976;52.526;13.326;2023-04-19T10:23:22;101878.41;;;13.54;47.26
15750;BME280;7976;52.526;13.326;2023-04-19T10:25:56;101877.59;;;13.52;47.05
15750;BME280;7976;52.526;13.326;2023-04-19T10:28:26;101870.72;;;13.48;46.91
15750;BME280;7976;52.526;13.326;2023-04-19T10:30:57;101857.47;;;13.51;46.97
15750;BME280;7976;52.526;13.326;2023-04-19T10:33:26;101866.97;;;13.55;46.75
15750;BME280;7976;52.526;13.326;2023-04-19T10:35:55;101876.50;;;13.59;46.09
15750;BME280;7976;52.526;13.326;2023-04-19T10:38:37;101874.16;;;13.50;46.17
15750;BME280;7976;52.526;13.326;2023-04-19T10:41:06;101865.69;;;13.40;46.20
15750;BME280;7976;52.526;13.326;2023-04-19T10:43:40;101872.31;;;13.24;46.41
15750;BME280;7976;52.526;13.326;2023-04-19T10:46:09;101870.81;;;13.16;46.73
15750;BME280;7976;52.526;13.326;2023-04-19T10:48:51;101871.81;;;13.12;46.70
15750;BME280;7976;52.526;13.326;2023-04-19T10:51:22;101871.91;;;13.09;46.78
15750;BME280;7976;52.526;13.326;2023-04-19T10:53:55;101856.19;;;13.07;46.86
15750;BME280;7976;52.526;13.326;2023-04-19T10:56:58;101842.84;;;13.13;46.43
15750;BME280;7976;52.526;13.326;2023-04-19T10:59:29;101859.28;;;13.20;46.43
15750;BME280;7976;52.526;13.326;2023-04-19T11:01:58;101847.69;;;13.27;46.34
15750;BME280;7976;52.526;13.326;2023-04-19T11:05:01;101852.69;;;13.36;46.23
15750;BME280;7976;52.526;13.326;2023-04-19T11:07:37;101853.22;;;13.47;46.28
15750;BME280;7976;52.526;13.326;2023-04-19T11:10:05;101847.41;;;13.63;46.08
15750;BME280;7976;52.526;13.326;2023-04-19T11:12:35;101842.75;;;13.71;45.61
15750;BME280;7976;52.526;13.326;2023-04-19T11:15:04;101841.72;;;13.77;45.86
15750;BME280;7976;52.526;13.326;2023-04-19T11:17:33;101833.53;;;13.86;46.14
15750;BME280;7976;52.526;13.326;2023-04-19T11:20:05;101836.22;;;13.84;46.39
15750;BME280;7976;52.526;13.326;2023-04-19T11:22:34;101830.47;;;13.72;46.67
15750;BME280;7976;52.526;13.326;2023-04-19T11:25:09;101830.16;;;13.55;46.80
15750;BME280;7976;52.526;13.326;2023-04-19T11:27:39;101826.19;;;13.42;47.27
15750;BME280;7976;52.526;13.326;2023-04-19T11:30:09;101829.84;;;13.38;47.53
15750;BME280;7976;52.526;13.326;2023-04-19T11:32:43;101836.28;;;13.28;47.56
15750;BME280;7976;52.526;13.326;2023-04-19T11:35:10;101835.88;;;13.12;47.71
15750;BME280;7976;52.526;13.326;2023-04-19T11:37:38;101822.94;;;13.05;47.73
15750;BME280;7976;52.526;13.326;2023-04-19T11:40:06;101830.94;;;13.02;47.88
15750;BME280;7976;52.526;13.326;2023-04-19T11:42:34;101818.69;;;13.01;47.90
15750;BME280;7976;52.526;13.326;2023-04-19T11:45:04;101816.47;;;13.16;47.59
15750;BME280;7976;52.526;13.326;2023-04-19T11:47:32;101805.25;;;13.39;47.36
15750;BME280;7976;52.526;13.326;2023-04-19T11:50:30;101811.63;;;13.59;47.09
15750;BME280;7976;52.526;13.326;2023-04-19T11:52:57;101830.31;;;13.50;47.12
15750;BME280;7976;52.526;13.326;2023-04-19T11:55:24;101816.75;;;13.35;46.73
15750;BME280;7976;52.526;13.326;2023-04-19T11:57:51;101805.00;;;13.19;46.63
15750;BME280;7976;52.526;13.326;2023-04-19T12:00:27;101821.59;;;13.21;46.57
15750;BME280;7976;52.526;13.326;2023-04-19T12:02:54;101805.94;;;13.16;45.95
15750;BME280;7976;52.526;13.326;2023-04-19T12:05:22;101807.84;;;13.13;45.92
15750;BME280;7976;52.526;13.326;2023-04-19T12:08:03;101805.00;;;13.19;46.00
15750;BME280;7976;52.526;13.326;2023-04-19T12:10:33;101804.03;;;13.21;46.20
15750;BME280;7976;52.526;13.326;2023-04-19T12:13:16;101792.50;;;13.27;46.11
15750;BME280;7976;52.526;13.326;2023-04-19T12:15:45;101791.44;;;13.32;45.72
15750;BME280;7976;52.526;13.326;2023-04-19T12:18:13;101780.22;;;13.27;45.71
15750;BME280;7976;52.526;13.326;2023-04-19T12:20:44;101791.63;;;13.26;46.27
15750;BME280;7976;52.526;13.326;2023-04-19T12:23:12;101778.34;;;13.31;46.61
15750;BME280;7976;52.526;13.326;2023-04-19T12:25:41;101770.31;;;13.35;46.73
15750;BME280;7976;52.526;13.326;2023-04-19T12:28:08;101768.66;;;13.31;46.70
15750;BME280;7976;52.526;13.326;2023-04-19T12:30:35;101772.22;;;13.30;46.46
15750;BME280;7976;52.526;13.326;2023-04-19T12:33:05;101763.25;;;13.37;46.33
15750;BME280;7976;52.526;13.326;2023-04-19T12:35:32;101762.47;;;13.34;45.77
15750;BME280;7976;52.526;13.326;2023-04-19T12:38:00;101752.13;;;13.29;45.70
15750;BME280;7976;52.526;13.326;2023-04-19T12:40:28;101748.41;;;13.35;46.11
15750;BME280;7976;52.526;13.326;2023-04-19T12:42:56;101750.97;;;13.36;46.69
15750;BME280;7976;52.526;13.326;2023-04-19T12:45:22;101750.97;;;13.36;46.68
15750;BME280;7976;52.526;13.326;2023-04-19T12:47:49;101748.34;;;13.38;47.21
15750;BME280;7976;52.526;13.326;2023-04-19T12:50:17;101759.13;;;13.29;47.44
15750;BME280;7976;52.526;13.326;2023-04-19T12:52:44;101751.72;;;13.14;47.46
15750;BME280;7976;52.526;13.326;2023-04-19T12:55:11;101744.06;;;13.08;47.55
15750;BME280;7976;52.526;13.326;2023-04-19T12:57:38;101746.69;;;13.08;47.54
15750;BME280;7976;52.526;13.326;2023-04-19T13:00:08;101726.38;;;13.13;47.51
15750;BME280;7976;52.526;13.326;2023-04-19T13:02:35;101735.53;;;13.27;47.23